createdAt,value
2023-01-04T00:00:25.952Z,489.7
2023-01-04T00:01:27.963Z,489.9
2023-01-04T00:02:30.867Z,489.6
2023-01-04T00:03:34.433Z,489.3
2023-01-04T00:04:37.117Z,490
2023-01-04T00:05:39.694Z,489.9
2023-01-04T00:06:42.268Z,489.9
2023-01-04T00:07:44.791Z,490.7
2023-01-04T00:08:46.486Z,490.7
2023-01-04T00:09:48.765Z,490.4
2023-01-04T00:10:51.269Z,490.5
2023-01-04T00:11:53.840Z,490.9
2023-01-04T00:12:56.377Z,490.8
2023-01-04T00:13:58.951Z,491
2023-01-04T00:15:01.506Z,490.6
2023-01-04T00:17:09.050Z,490.8
2023-01-04T00:18:11.293Z,490.9
2023-01-04T00:19:13.572Z,490.8
2023-01-04T00:20:16.118Z,490.7
2023-01-04T00:21:18.758Z,490.7
2023-01-04T00:22:21.348Z,490.8
2023-01-04T00:23:23.864Z,490.9
2023-01-04T00:24:26.370Z,491.1
2023-01-04T00:25:28.352Z,491.2
2023-01-04T00:26:30.928Z,490.8
2023-01-04T00:27:33.152Z,490.7
2023-01-04T00:28:35.141Z,490.6
2023-01-04T00:29:37.655Z,491.2
2023-01-04T00:30:40.149Z,491.1
2023-01-04T00:31:43.011Z,491
2023-01-04T00:32:45.297Z,490.9
2023-01-04T00:33:47.827Z,491
2023-01-04T00:34:50.353Z,491
2023-01-04T00:35:52.854Z,490.4
2023-01-04T00:36:55.387Z,490.5
2023-01-04T00:37:57.991Z,490.5
2023-01-04T00:39:00.490Z,490.6
2023-01-04T00:40:02.818Z,490.6
2023-01-04T00:41:05.315Z,490.7
2023-01-04T00:42:07.880Z,490.9
2023-01-04T00:43:10.136Z,491.2
2023-01-04T00:44:12.168Z,491.3
2023-01-04T00:45:14.406Z,491.3
2023-01-04T00:46:17.256Z,491.2
2023-01-04T00:47:19.516Z,491.2
2023-01-04T00:48:21.440Z,491.2
2023-01-04T00:49:24.015Z,491.2
2023-01-04T00:50:26.283Z,491.7
2023-01-04T00:51:29.006Z,491.9
2023-01-04T00:52:31.509Z,491.6
2023-01-04T00:53:34.143Z,491.9
2023-01-04T00:54:36.716Z,491.9
2023-01-04T00:55:39.219Z,492.1
2023-01-04T00:56:41.750Z,492
2023-01-04T00:57:43.964Z,492.1
2023-01-04T00:58:46.507Z,492.4
2023-01-04T00:59:49.028Z,492.9
2023-01-04T01:00:51.581Z,492.9
2023-01-04T01:01:55.205Z,492.7
2023-01-04T01:02:59.290Z,493.2
2023-01-04T01:04:02.258Z,493.1
2023-01-04T01:05:04.833Z,493.2
2023-01-04T01:06:07.066Z,493.1
2023-01-04T01:07:09.017Z,493.2
2023-01-04T01:08:11.522Z,493
2023-01-04T01:09:14.177Z,492.6
2023-01-04T01:10:16.680Z,492.8
2023-01-04T01:11:18.641Z,492.6
2023-01-04T01:12:20.888Z,492.3
2023-01-04T01:13:23.417Z,492.4
2023-01-04T01:14:26.188Z,492.2
2023-01-04T01:15:28.926Z,492.5
2023-01-04T01:17:36.175Z,492.2
2023-01-04T01:18:38.686Z,492.8
2023-01-04T01:19:40.958Z,492.7
2023-01-04T01:20:43.471Z,492.3
2023-01-04T01:21:45.749Z,492.4
2023-01-04T01:22:48.281Z,492.3
2023-01-04T01:23:50.807Z,492.4
2023-01-04T01:24:53.433Z,492.1
2023-01-04T01:25:56.000Z,491.9
2023-01-04T01:26:58.545Z,492.1
2023-01-04T01:28:01.104Z,492.2
2023-01-04T01:29:03.109Z,492.4
2023-01-04T01:30:05.830Z,492.4
2023-01-04T01:32:13.033Z,491.8
2023-01-04T01:33:15.261Z,491.6
2023-01-04T01:34:17.793Z,492.1
2023-01-04T01:35:20.325Z,492.1
2023-01-04T01:36:22.847Z,492.2
2023-01-04T01:37:25.369Z,492
2023-01-04T01:38:27.589Z,491.4
2023-01-04T01:39:30.152Z,490.8
2023-01-04T01:40:32.776Z,490.4
2023-01-04T01:41:35.030Z,490.4
2023-01-04T01:42:37.313Z,490.2
2023-01-04T01:43:39.839Z,490.1
2023-01-04T01:44:41.781Z,490.6
2023-01-04T01:45:43.745Z,490.4
2023-01-04T01:46:46.377Z,490.7
2023-01-04T01:47:48.931Z,490.4
2023-01-04T01:48:51.434Z,491
2023-01-04T01:49:53.939Z,491.2
2023-01-04T01:50:56.158Z,491
2023-01-04T01:51:58.678Z,491.8
2023-01-04T01:53:00.924Z,491.4
2023-01-04T01:54:03.432Z,491.4
2023-01-04T01:55:06.053Z,490.9
2023-01-04T01:56:08.465Z,491.2
2023-01-04T01:57:11.009Z,490.7
2023-01-04T01:58:13.227Z,491.2
2023-01-04T01:59:15.737Z,491.4
2023-01-04T02:00:18.337Z,490.4
2023-01-04T02:01:21.423Z,490.2
2023-01-04T02:02:25.289Z,489.7
2023-01-04T02:03:28.765Z,490.1
2023-01-04T02:04:31.435Z,490.3
2023-01-04T02:05:33.673Z,490.3
2023-01-04T02:06:36.176Z,490.4
2023-01-04T02:07:38.393Z,490.5
2023-01-04T02:08:40.901Z,490.7
2023-01-04T02:09:43.179Z,490.1
2023-01-04T02:10:45.398Z,491
2023-01-04T02:11:47.992Z,490.9
2023-01-04T02:12:50.513Z,491.5
2023-01-04T02:13:52.460Z,491.8
2023-01-04T02:14:54.986Z,491.7
2023-01-04T02:15:57.284Z,491.5
2023-01-04T02:16:59.569Z,491.6
2023-01-04T02:18:01.320Z,491.3
2023-01-04T02:19:03.842Z,491.2
2023-01-04T02:20:06.567Z,491.2
2023-01-04T02:21:08.797Z,491.7
2023-01-04T02:22:11.037Z,491.5
2023-01-04T02:23:13.552Z,491.5
2023-01-04T02:24:16.059Z,492.1
2023-01-04T02:25:18.624Z,492.4
2023-01-04T02:26:20.840Z,492.3
2023-01-04T02:27:23.535Z,492.5
2023-01-04T02:28:25.886Z,492.4
2023-01-04T02:29:28.398Z,492.8
2023-01-04T02:30:30.655Z,492.7
2023-01-04T02:31:33.548Z,493.2
2023-01-04T02:32:36.094Z,493.5
2023-01-04T02:33:38.619Z,493.4
2023-01-04T02:34:40.847Z,493.6
2023-01-04T02:35:42.796Z,493.6
2023-01-04T02:36:45.024Z,494.5
2023-01-04T02:37:47.012Z,494.1
2023-01-04T02:38:49.533Z,493.7
2023-01-04T02:39:52.047Z,493.5
2023-01-04T02:40:54.548Z,493.2
2023-01-04T02:41:56.822Z,493.3
2023-01-04T02:42:59.166Z,493.2
2023-01-04T02:44:01.688Z,493.5
2023-01-04T02:45:03.979Z,493.2
2023-01-04T02:46:07.010Z,493
2023-01-04T02:47:10.136Z,493.6
2023-01-04T02:48:12.792Z,492.7
2023-01-04T02:49:15.373Z,492.9
2023-01-04T02:50:17.882Z,493.3
2023-01-04T02:51:20.425Z,493.4
2023-01-04T02:52:22.988Z,493.3
2023-01-04T02:53:24.963Z,493.7
2023-01-04T02:54:27.216Z,493.7
2023-01-04T02:55:29.802Z,494
2023-01-04T02:56:32.305Z,494.2
2023-01-04T02:57:34.819Z,494.3
2023-01-04T02:58:37.485Z,494.9
2023-01-04T02:59:40.013Z,495
2023-01-04T03:00:42.256Z,495.2
2023-01-04T03:01:45.218Z,495.5
2023-01-04T03:02:48.891Z,495.6
2023-01-04T03:03:51.943Z,495.6
2023-01-04T03:04:54.479Z,495.9
2023-01-04T03:05:57.063Z,495.8
2023-01-04T03:06:59.613Z,496.3
2023-01-04T03:08:01.850Z,496
2023-01-04T03:09:04.092Z,496.4
2023-01-04T03:10:06.722Z,496.4
2023-01-04T03:11:09.226Z,496.5
2023-01-04T03:12:11.473Z,496.2
2023-01-04T03:13:13.666Z,496.3
2023-01-04T03:15:21.479Z,496.5
2023-01-04T03:16:24.464Z,496
2023-01-04T03:17:27.018Z,496.3
2023-01-04T03:18:29.584Z,495.9
2023-01-04T03:19:31.791Z,495.9
2023-01-04T03:20:34.054Z,495.7
2023-01-04T03:21:36.590Z,495.7
2023-01-04T03:22:38.540Z,495.7
2023-01-04T03:23:40.782Z,495.8
2023-01-04T03:24:43.025Z,495
2023-01-04T03:25:45.552Z,495.6
2023-01-04T03:26:48.087Z,495.8
2023-01-04T03:27:50.586Z,495.5
2023-01-04T03:28:52.813Z,495.6
2023-01-04T03:29:55.056Z,495.8
2023-01-04T03:30:57.946Z,495.8
2023-01-04T03:32:00.715Z,496
2023-01-04T03:33:03.206Z,496
2023-01-04T03:34:05.729Z,496.3
2023-01-04T03:35:07.960Z,496.5
2023-01-04T03:36:10.228Z,496.2
2023-01-04T03:37:12.459Z,496.4
2023-01-04T03:38:14.966Z,496.1
2023-01-04T03:39:17.486Z,496.3
2023-01-04T03:40:19.773Z,496
2023-01-04T03:41:22.017Z,496.2
2023-01-04T03:42:24.535Z,496.5
2023-01-04T03:43:27.050Z,496.4
2023-01-04T03:44:29.565Z,496.5
2023-01-04T03:45:32.094Z,496
2023-01-04T03:46:34.549Z,496.3
2023-01-04T03:47:36.907Z,496.1
2023-01-04T03:48:39.247Z,496.5
2023-01-04T03:49:41.877Z,496.7
2023-01-04T03:50:43.833Z,497
2023-01-04T03:51:46.380Z,497.2
2023-01-04T03:52:48.621Z,497.5
2023-01-04T03:53:51.105Z,497.7
2023-01-04T03:54:53.055Z,497.5
2023-01-04T03:55:55.567Z,498
2023-01-04T03:56:57.809Z,497.9
2023-01-04T03:58:00.390Z,498.2
2023-01-04T03:59:02.949Z,498.3
2023-01-04T04:00:05.196Z,498.3
2023-01-04T04:01:08.462Z,498.7
2023-01-04T04:02:11.459Z,498.8
2023-01-04T04:03:13.737Z,499
2023-01-04T04:04:16.655Z,499
2023-01-04T04:05:19.222Z,499.1
2023-01-04T04:06:21.725Z,499.5
2023-01-04T04:07:24.056Z,499.5
2023-01-04T04:08:26.460Z,499.6
2023-01-04T04:09:28.982Z,499.5
2023-01-04T04:10:31.237Z,499.1
2023-01-04T04:11:33.745Z,498.7
2023-01-04T04:12:36.257Z,499
2023-01-04T04:13:38.763Z,498.9
2023-01-04T04:14:41.305Z,499.2
2023-01-04T04:15:43.819Z,499.2
2023-01-04T04:16:46.161Z,499.2
2023-01-04T04:17:48.820Z,499.2
2023-01-04T04:18:51.083Z,499.2
2023-01-04T04:19:53.623Z,498.8
2023-01-04T04:20:56.135Z,499.4
2023-01-04T04:21:58.642Z,499.5
2023-01-04T04:23:00.898Z,499.7
2023-01-04T04:24:02.585Z,499.7
2023-01-04T04:25:05.231Z,499.6
2023-01-04T04:26:07.751Z,499.2
2023-01-04T04:27:10.413Z,499.3
2023-01-04T04:28:12.927Z,499.4
2023-01-04T04:29:15.504Z,499.3
2023-01-04T04:30:17.802Z,499.8
2023-01-04T04:31:20.692Z,500
2023-01-04T04:32:22.931Z,499.9
2023-01-04T04:33:25.606Z,500.2
2023-01-04T04:34:28.148Z,500.1
2023-01-04T04:35:30.377Z,500.5
2023-01-04T04:36:32.887Z,500.7
2023-01-04T04:37:35.421Z,500.8
2023-01-04T04:38:37.951Z,501.3
2023-01-04T04:39:40.460Z,501.4
2023-01-04T04:40:43.019Z,501.7
2023-01-04T04:41:45.725Z,501.4
2023-01-04T04:42:48.025Z,501.5
2023-01-04T04:43:50.284Z,501.7
2023-01-04T04:44:52.820Z,501.8
2023-01-04T04:45:55.456Z,501.7
2023-01-04T04:46:58.058Z,502
2023-01-04T04:48:00.358Z,502
2023-01-04T04:49:02.699Z,501.9
2023-01-04T04:50:04.960Z,501.8
2023-01-04T04:51:07.496Z,502.1
2023-01-04T04:52:09.735Z,502.3
2023-01-04T04:53:12.272Z,503
2023-01-04T04:54:14.934Z,503
2023-01-04T04:55:17.477Z,502.9
2023-01-04T04:56:19.770Z,503.3
2023-01-04T04:57:22.021Z,503
2023-01-04T04:58:24.627Z,503.3
2023-01-04T04:59:26.590Z,503.3
2023-01-04T05:00:29.113Z,503.2
2023-01-04T05:01:32.798Z,503.7
2023-01-04T05:02:35.825Z,503.2
2023-01-04T05:03:38.946Z,503.5
2023-01-04T05:04:41.685Z,503.4
2023-01-04T05:05:44.205Z,502.9
2023-01-04T05:06:46.754Z,503.1
2023-01-04T05:07:49.292Z,502.7
2023-01-04T05:08:51.856Z,502.9
2023-01-04T05:09:54.123Z,502.8
2023-01-04T05:10:56.360Z,502.8
2023-01-04T05:11:58.684Z,502.5
2023-01-04T05:13:01.178Z,502.8
2023-01-04T05:14:03.403Z,502.6
2023-01-04T05:15:05.638Z,502.6
2023-01-04T05:16:08.069Z,502.7
2023-01-04T05:17:11.207Z,502.6
2023-01-04T05:18:13.517Z,503
2023-01-04T05:19:15.783Z,502.9
2023-01-04T05:20:18.407Z,503.2
2023-01-04T05:21:22.240Z,503.1
2023-01-04T05:22:24.760Z,502.9
2023-01-04T05:23:27.010Z,502.8
2023-01-04T05:24:29.512Z,502.8
2023-01-04T05:25:32.045Z,502.8
2023-01-04T05:26:34.589Z,502.6
2023-01-04T05:27:37.088Z,502.6
2023-01-04T05:28:39.058Z,502.4
2023-01-04T05:29:41.590Z,502.8
2023-01-04T05:30:44.123Z,502.8
2023-01-04T05:31:46.603Z,502.8
2023-01-04T05:32:48.885Z,502.9
2023-01-04T05:33:51.624Z,502.7
2023-01-04T05:34:53.867Z,502.6
2023-01-04T05:35:56.519Z,502.2
2023-01-04T05:36:58.788Z,502.6
2023-01-04T05:38:01.295Z,502.5
2023-01-04T05:39:03.806Z,502.3
2023-01-04T05:40:06.396Z,502.6
2023-01-04T05:41:08.945Z,502.4
2023-01-04T05:42:11.207Z,502.5
2023-01-04T05:43:13.768Z,502.6
2023-01-04T05:44:16.018Z,502.7
2023-01-04T05:45:18.525Z,502.5
2023-01-04T05:46:21.395Z,502.5
2023-01-04T05:47:23.932Z,502.2
2023-01-04T05:48:26.494Z,502.1
2023-01-04T05:49:29.059Z,501.8
2023-01-04T05:50:31.617Z,501.9
2023-01-04T05:51:34.193Z,501.8
2023-01-04T05:52:36.447Z,501.7
2023-01-04T05:53:38.964Z,501.8
2023-01-04T05:54:41.476Z,501.8
2023-01-04T05:55:43.755Z,501.4
2023-01-04T05:56:46.292Z,501.9
2023-01-04T05:57:48.812Z,501.9
2023-01-04T05:58:51.047Z,501.9
2023-01-04T05:59:53.550Z,501.8
2023-01-04T06:00:55.804Z,501.9
2023-01-04T06:01:59.231Z,501.6
2023-01-04T06:03:02.722Z,501.4
2023-01-04T06:04:05.421Z,501.2
2023-01-04T06:05:07.731Z,501.2
2023-01-04T06:06:10.228Z,500.8
2023-01-04T06:07:13.109Z,500.8
2023-01-04T06:08:15.662Z,500.7
2023-01-04T06:09:18.177Z,500.5
2023-01-04T06:10:20.430Z,500.6
2023-01-04T06:12:27.413Z,500.5
2023-01-04T06:13:29.926Z,501
2023-01-04T06:14:32.435Z,501.1
2023-01-04T06:16:39.971Z,501.2
2023-01-04T06:17:42.275Z,500.7
2023-01-04T06:18:44.791Z,500.9
2023-01-04T06:19:47.351Z,500.9
2023-01-04T06:20:49.611Z,501
2023-01-04T06:21:51.575Z,501.2
2023-01-04T06:22:54.449Z,500.9
2023-01-04T06:23:56.708Z,501.2
2023-01-04T06:24:59.208Z,501.3
2023-01-04T06:26:01.734Z,501.1
2023-01-04T06:27:04.247Z,501.3
2023-01-04T06:28:06.566Z,500.8
2023-01-04T06:29:09.072Z,500.7
2023-01-04T06:30:11.041Z,500.6
2023-01-04T06:31:13.697Z,500.8
2023-01-04T06:32:16.273Z,501.3
2023-01-04T06:33:18.778Z,501.3
2023-01-04T06:35:28.230Z,501.5
2023-01-04T06:36:30.729Z,501.5
2023-01-04T06:37:33.460Z,502
2023-01-04T06:38:36.081Z,502.1
2023-01-04T06:39:38.619Z,501.9
2023-01-04T06:40:40.592Z,502
2023-01-04T06:41:42.807Z,502
2023-01-04T06:42:45.347Z,501.9
2023-01-04T06:43:47.612Z,502.6
2023-01-04T06:44:50.123Z,502.6
2023-01-04T06:45:52.781Z,502.7
2023-01-04T06:46:55.321Z,502.6
2023-01-04T06:47:57.564Z,502.5
2023-01-04T06:48:59.806Z,502.8
2023-01-04T06:50:02.167Z,502.9
2023-01-04T06:51:04.679Z,502.8
2023-01-04T06:52:06.919Z,503
2023-01-04T06:53:09.156Z,503.1
2023-01-04T06:54:11.790Z,503.1
2023-01-04T06:55:14.047Z,503.2
2023-01-04T06:56:16.295Z,502.9
2023-01-04T06:57:18.539Z,503
2023-01-04T06:58:21.057Z,503.1
2023-01-04T06:59:23.616Z,503.2
2023-01-04T07:00:26.148Z,503.9
2023-01-04T07:01:29.624Z,504
2023-01-04T07:02:32.512Z,503.8
2023-01-04T07:03:34.841Z,504.4
2023-01-04T07:04:37.740Z,504.5
2023-01-04T07:05:39.966Z,504.8
2023-01-04T07:06:42.203Z,504.4
2023-01-04T07:07:44.706Z,504.5
2023-01-04T07:08:47.262Z,504.5
2023-01-04T07:09:49.887Z,504
2023-01-04T07:10:52.406Z,504.2
2023-01-04T07:11:54.924Z,504.2
2023-01-04T07:12:57.457Z,504.1
2023-01-04T07:13:59.461Z,503.9
2023-01-04T07:15:01.815Z,504.1
2023-01-04T07:16:04.674Z,504.5
2023-01-04T07:17:06.701Z,504.7
2023-01-04T07:18:09.014Z,504.4
2023-01-04T07:19:11.647Z,504.5
2023-01-04T07:20:14.173Z,504
2023-01-04T07:21:16.205Z,504
2023-01-04T07:22:18.767Z,504.5
2023-01-04T07:23:21.285Z,504.6
2023-01-04T07:25:28.898Z,504.6
2023-01-04T07:26:31.167Z,504.7
2023-01-04T07:27:33.444Z,504.6
2023-01-04T07:28:36.005Z,504.8
2023-01-04T07:29:38.547Z,504.5
2023-01-04T07:30:41.052Z,504.5
2023-01-04T07:31:43.026Z,504.3
2023-01-04T07:32:45.527Z,504.1
2023-01-04T07:33:48.024Z,504.4
2023-01-04T07:34:50.543Z,504.1
2023-01-04T07:35:52.784Z,503.9
2023-01-04T07:36:55.347Z,503.6
2023-01-04T07:39:02.925Z,504.2
2023-01-04T07:40:05.175Z,504.1
2023-01-04T07:41:07.895Z,504.4
2023-01-04T07:42:10.157Z,504.2
2023-01-04T07:43:12.661Z,504.1
2023-01-04T07:44:14.922Z,504.7
2023-01-04T07:45:17.479Z,504.6
2023-01-04T07:46:20.452Z,505.1
2023-01-04T07:47:23.035Z,505.2
2023-01-04T07:48:25.835Z,505.1
2023-01-04T07:49:28.362Z,504.9
2023-01-04T07:50:31.026Z,505.1
2023-01-04T07:51:33.028Z,505.2
2023-01-04T07:52:35.631Z,505.4
2023-01-04T07:53:37.635Z,505
2023-01-04T07:54:40.149Z,505.4
2023-01-04T07:55:42.435Z,505.6
2023-01-04T07:56:45.147Z,506
2023-01-04T07:57:47.692Z,506.2
2023-01-04T07:58:50.214Z,505.9
2023-01-04T07:59:52.174Z,506.4
2023-01-04T08:00:54.703Z,506.5
2023-01-04T08:01:57.903Z,506.1
2023-01-04T08:03:01.298Z,506.4
2023-01-04T08:04:04.223Z,506.5
2023-01-04T08:05:06.730Z,506.7
2023-01-04T08:06:09.338Z,507.1
2023-01-04T08:07:11.590Z,507.3
2023-01-04T08:08:13.807Z,507
2023-01-04T08:09:16.067Z,506.8
2023-01-04T08:10:18.631Z,507.1
2023-01-04T08:11:20.609Z,507
2023-01-04T08:12:23.268Z,507.1
2023-01-04T08:13:25.788Z,506.9
2023-01-04T08:14:28.304Z,506.8
2023-01-04T08:15:31.195Z,507
2023-01-04T08:16:34.307Z,506.9
2023-01-04T08:17:36.981Z,506.4
2023-01-04T08:18:39.500Z,506.7
2023-01-04T08:19:41.800Z,506.9
2023-01-04T08:20:44.070Z,506.8
2023-01-04T08:21:46.571Z,506.7
2023-01-04T08:22:49.104Z,506.7
2023-01-04T08:23:51.617Z,506.8
2023-01-04T08:24:53.642Z,506.4
2023-01-04T08:25:56.152Z,506.8
2023-01-04T08:26:58.420Z,506.4
2023-01-04T08:28:01.106Z,506.5
2023-01-04T08:29:03.399Z,507
2023-01-04T08:30:05.957Z,506.5
2023-01-04T08:31:08.763Z,506.7
2023-01-04T08:32:11.333Z,506.9
2023-01-04T08:33:13.982Z,506.3
2023-01-04T08:34:16.254Z,507.1
2023-01-04T08:35:18.495Z,506.8
2023-01-04T08:37:25.984Z,506.8
2023-01-04T08:39:33.492Z,506.7
2023-01-04T08:42:46.012Z,507.1
2023-01-04T08:43:48.713Z,507
2023-01-04T08:45:56.707Z,507.1
2023-01-04T08:46:59.931Z,507.1
2023-01-04T08:48:02.208Z,506.7
2023-01-04T08:49:04.781Z,506.7
2023-01-04T08:51:12.266Z,506.7
2023-01-04T08:52:14.801Z,506.8
2023-01-04T08:53:17.421Z,506.9
2023-01-04T08:54:19.410Z,506.9
2023-01-04T08:56:26.685Z,507
2023-01-04T08:57:29.270Z,507
2023-01-04T08:58:31.548Z,507.1
2023-01-04T08:59:34.199Z,507.2
2023-01-04T09:00:36.519Z,506.9
2023-01-04T09:01:40.171Z,507.4
2023-01-04T09:02:43.626Z,507.3
2023-01-04T09:03:45.992Z,508
2023-01-04T09:04:48.750Z,507.7
2023-01-04T09:05:51.020Z,508.1
2023-01-04T09:06:53.563Z,508.1
2023-01-04T09:07:55.850Z,508.5
2023-01-04T09:08:58.412Z,508.3
2023-01-04T09:10:01.140Z,508.8
2023-01-04T09:11:03.700Z,508.6
2023-01-04T09:12:06.036Z,508.4
2023-01-04T09:13:08.375Z,508.6
2023-01-04T09:14:11.321Z,508.5
2023-01-04T09:15:13.629Z,509
2023-01-04T09:16:16.444Z,509.4
2023-01-04T09:17:19.008Z,509.2
2023-01-04T09:19:26.558Z,509.2
2023-01-04T09:20:29.121Z,509.7
2023-01-04T09:21:32.071Z,509.2
2023-01-04T09:22:34.555Z,509
2023-01-04T09:23:36.892Z,509.5
2023-01-04T09:24:39.466Z,509.3
2023-01-04T09:25:41.976Z,509.1
2023-01-04T09:26:43.946Z,508.9
2023-01-04T09:27:45.942Z,508.7
2023-01-04T09:28:47.970Z,508.7
2023-01-04T09:29:50.199Z,508.5
2023-01-04T09:30:52.648Z,508.8
2023-01-04T09:31:55.685Z,508.9
2023-01-04T09:32:57.704Z,509
2023-01-04T09:35:05.237Z,508.5
2023-01-04T09:36:07.518Z,508.3
2023-01-04T09:37:09.755Z,508.6
2023-01-04T09:38:12.317Z,508.8
2023-01-04T09:40:19.298Z,508.4
2023-01-04T09:41:21.882Z,508.1
2023-01-04T09:42:24.128Z,507.9
2023-01-04T09:43:26.679Z,508.2
2023-01-04T09:45:33.943Z,508.6
2023-01-04T09:46:36.790Z,508.8
2023-01-04T09:47:39.694Z,508.5
2023-01-04T09:48:41.853Z,508.9
2023-01-04T09:49:43.810Z,509
2023-01-04T09:50:45.821Z,509.1
2023-01-04T09:51:48.151Z,509.3
2023-01-04T09:52:50.465Z,509.2
2023-01-04T09:53:52.729Z,509.6
2023-01-04T09:55:59.936Z,510
2023-01-04T09:57:02.554Z,509.4
2023-01-04T09:58:05.086Z,509.5
2023-01-04T09:59:07.369Z,509.4
2023-01-04T10:00:09.897Z,509.8
2023-01-04T10:01:13.210Z,509.8
2023-01-04T10:02:17.383Z,509.5
2023-01-04T10:03:20.694Z,509.8
2023-01-04T10:04:23.496Z,509.6
2023-01-04T10:05:26.032Z,509.7
2023-01-04T10:06:28.320Z,510
2023-01-04T10:07:30.602Z,510
2023-01-04T10:08:33.168Z,510.6
2023-01-04T10:09:35.448Z,510
2023-01-04T10:10:37.689Z,510.4
2023-01-04T10:11:40.226Z,510.7
2023-01-04T10:12:42.765Z,510.7
2023-01-04T10:13:45.358Z,510.6
2023-01-04T10:14:47.337Z,510.8
2023-01-04T10:15:49.909Z,510.6
2023-01-04T10:21:44.936Z,511.4
2023-01-04T10:22:47.272Z,511.2
2023-01-04T10:23:49.784Z,512.4
2023-01-04T10:24:52.010Z,512.6
2023-01-04T10:25:54.576Z,512.3
2023-01-04T10:26:57.212Z,512.3
2023-01-04T10:27:59.763Z,512.6
2023-01-04T10:29:01.999Z,512.5
2023-01-04T10:30:04.240Z,513
2023-01-04T10:32:11.806Z,513.5
2023-01-04T10:33:14.425Z,513.7
2023-01-04T10:35:21.936Z,514.2
2023-01-04T10:36:24.037Z,514.5
2023-01-04T10:37:26.675Z,514.6
2023-01-04T10:38:28.952Z,514.8
2023-01-04T10:40:36.449Z,514.6
2023-01-04T10:41:38.133Z,514.8
2023-01-04T10:42:40.698Z,514.7
2023-01-04T10:44:48.194Z,515.5
2023-01-04T10:45:50.728Z,515.1
2023-01-04T10:46:53.598Z,515.6
2023-01-04T10:47:55.860Z,515.1
2023-01-04T10:48:58.382Z,515.3
2023-01-04T10:50:00.953Z,515.9
2023-01-04T10:52:08.499Z,515.2
2023-01-04T10:53:11.143Z,515.9
2023-01-04T10:54:13.167Z,515.8
2023-01-04T10:55:15.732Z,515.8
2023-01-04T10:57:23.238Z,516.6
2023-01-04T10:58:25.778Z,516.5
2023-01-04T10:59:28.313Z,516.8
2023-01-04T11:00:30.850Z,517.1
2023-01-04T11:01:34.363Z,517
2023-01-04T11:02:37.740Z,517.2
2023-01-04T11:03:40.164Z,517.2
2023-01-04T11:04:42.557Z,517.6
2023-01-04T11:05:44.806Z,517.5
2023-01-04T11:06:46.799Z,518.4
2023-01-04T11:07:48.781Z,518.1
2023-01-04T11:08:51.422Z,518.8
2023-01-04T11:09:53.706Z,518.4
2023-01-04T11:10:55.957Z,519
2023-01-04T11:11:58.503Z,518.5
2023-01-04T11:13:01.053Z,519.2
2023-01-04T11:14:03.330Z,518.9
2023-01-04T11:15:05.868Z,518.8
2023-01-04T11:16:08.768Z,518.8
2023-01-04T11:17:11.345Z,518.9
2023-01-04T11:18:13.575Z,518.7
2023-01-04T11:19:16.091Z,519
2023-01-04T11:20:18.096Z,519.2
2023-01-04T11:21:20.633Z,519.4
2023-01-04T11:22:23.092Z,520.2
2023-01-04T11:23:25.176Z,520
2023-01-04T11:26:37.986Z,520.1
2023-01-04T11:27:40.612Z,520.5
2023-01-04T11:28:42.890Z,520.2
2023-01-04T11:29:45.149Z,520.1
2023-01-04T11:30:47.379Z,520.5
2023-01-04T11:31:50.158Z,520.6
2023-01-04T11:32:52.440Z,521.4
2023-01-04T11:33:55.014Z,520.9
2023-01-04T11:34:57.335Z,521.3
2023-01-04T11:36:00.044Z,520.5
2023-01-04T11:37:02.618Z,520.5
2023-01-04T11:38:04.875Z,520.9
2023-01-04T11:39:07.128Z,521
2023-01-04T11:40:09.651Z,521
2023-01-04T11:41:12.217Z,521
2023-01-04T11:42:14.550Z,521.8
2023-01-04T11:43:17.062Z,521.6
2023-01-04T11:44:19.343Z,521.7
2023-01-04T11:45:21.068Z,521.9
2023-01-04T11:46:23.816Z,522.2
2023-01-04T11:48:30.806Z,522.8
2023-01-04T11:49:33.318Z,522.4
2023-01-04T11:50:35.285Z,522.5
2023-01-04T11:51:37.801Z,522.5
2023-01-04T11:52:40.338Z,522.6
2023-01-04T11:53:42.726Z,523.2
2023-01-04T11:54:45.023Z,523.5
2023-01-04T11:55:47.278Z,523.7
2023-01-04T11:56:49.812Z,523.5
2023-01-04T11:57:52.433Z,523.6
2023-01-04T11:58:54.685Z,523.9
2023-01-04T11:59:56.962Z,523.5
2023-01-04T12:00:59.220Z,524.1
2023-01-04T12:02:02.697Z,524
2023-01-04T12:03:05.860Z,525
2023-01-04T12:04:08.201Z,524.6
2023-01-04T12:05:10.698Z,524.9
2023-01-04T12:06:13.205Z,525.2
2023-01-04T12:07:15.688Z,525.1
2023-01-04T12:08:18.413Z,525
2023-01-04T12:09:20.663Z,524.6
2023-01-04T12:10:22.935Z,525.3
2023-01-04T12:11:25.516Z,525.5
2023-01-04T12:12:28.053Z,525.1
2023-01-04T12:13:30.680Z,525.1
2023-01-04T12:14:32.972Z,525.1
2023-01-04T12:15:35.211Z,525.5
2023-01-04T12:16:37.502Z,525.8
2023-01-04T12:18:44.721Z,527.3
2023-01-04T12:19:46.996Z,526.8
2023-01-04T12:20:49.238Z,526.8
2023-01-04T12:21:51.768Z,527.1
2023-01-04T12:22:54.292Z,527
2023-01-04T12:23:56.846Z,526.7
2023-01-04T12:26:04.100Z,526.9
2023-01-04T12:27:06.347Z,527.6
2023-01-04T12:28:08.635Z,527.7
2023-01-04T12:29:11.019Z,527.4
2023-01-04T12:30:13.351Z,527.4
2023-01-04T12:32:20.630Z,527.4
2023-01-04T12:33:23.159Z,527.6
2023-01-04T12:34:25.692Z,527.4
2023-01-04T12:35:27.936Z,527.9
2023-01-04T12:36:30.440Z,528
2023-01-04T12:37:32.967Z,528.2
2023-01-04T12:38:35.502Z,528.4
2023-01-04T12:39:37.741Z,528
2023-01-04T12:40:39.992Z,528.3
2023-01-04T12:41:42.254Z,529.3
2023-01-04T12:42:44.483Z,529.5
2023-01-04T12:43:49.220Z,529.8
2023-01-04T12:44:51.904Z,529.1
2023-01-04T12:45:54.838Z,528.8
2023-01-04T12:46:57.056Z,528.9
2023-01-04T12:47:59.019Z,528.9
2023-01-04T12:49:01.291Z,529.8
2023-01-04T12:50:03.270Z,530
2023-01-04T12:53:34.963Z,530.6
2023-01-04T12:54:36.974Z,530.8
2023-01-04T12:56:44.476Z,531.3
2023-01-04T12:57:46.992Z,531.3
2023-01-04T12:59:54.631Z,531.7
2023-01-04T13:00:57.208Z,531.6
2023-01-04T13:02:00.462Z,530.9
2023-01-04T13:03:04.401Z,531
2023-01-04T13:04:08.265Z,531
2023-01-04T13:06:15.768Z,530.6
2023-01-04T13:07:18.354Z,530.7
2023-01-04T13:08:20.612Z,530.6
2023-01-04T13:10:28.148Z,530.8
2023-01-04T13:11:30.691Z,531.4
2023-01-04T13:12:33.199Z,530.9
2023-01-04T13:13:35.179Z,531.2
2023-01-04T13:14:37.732Z,531.7
2023-01-04T13:15:40.477Z,531.1
2023-01-04T13:16:43.316Z,531.2
2023-01-04T13:17:45.305Z,531.3
2023-01-04T13:18:47.568Z,531
2023-01-04T13:19:50.165Z,530.9
2023-01-04T13:20:52.386Z,530.7
2023-01-04T13:21:54.637Z,530.4
2023-01-04T13:22:56.863Z,530.1
2023-01-04T13:23:59.394Z,530.5
2023-01-04T13:25:02.151Z,530.8
2023-01-04T13:26:04.105Z,531.1
2023-01-04T13:27:06.373Z,531.3
2023-01-04T13:29:14.127Z,531.6
2023-01-04T13:30:16.715Z,532
2023-01-04T13:31:19.706Z,531.5
2023-01-04T13:32:22.354Z,532.2
2023-01-04T13:34:29.591Z,532.3
2023-01-04T13:35:32.139Z,532.3
2023-01-04T13:36:34.726Z,532.7
2023-01-04T13:37:37.281Z,531.9
2023-01-04T13:38:39.506Z,532.1
2023-01-04T13:39:42.064Z,532.1
2023-01-04T13:41:49.300Z,532.1
2023-01-04T13:42:51.836Z,532.3
2023-01-04T13:43:54.132Z,532.2
2023-01-04T13:47:06.517Z,532.1
2023-01-04T13:48:08.480Z,531.6
2023-01-04T13:49:10.856Z,532
2023-01-04T13:50:13.391Z,532.1
2023-01-04T13:51:15.962Z,532.4
2023-01-04T13:53:23.289Z,532.3
2023-01-04T13:55:32.143Z,532.4
2023-01-04T13:56:34.813Z,533.2
2023-01-04T13:57:37.321Z,532.4
2023-01-04T13:58:39.863Z,533.1
2023-01-04T13:59:42.221Z,533.4
2023-01-04T14:00:45.238Z,533.4
2023-01-04T14:01:48.519Z,534.2
2023-01-04T14:02:52.641Z,533.9
2023-01-04T14:03:55.700Z,534.2
2023-01-04T14:04:57.994Z,534.1
2023-01-04T14:07:05.505Z,533.6
2023-01-04T14:08:07.732Z,533.9
2023-01-04T14:09:09.959Z,533.3
2023-01-04T14:10:12.199Z,533.7
2023-01-04T14:11:14.448Z,533.5
2023-01-04T14:12:16.990Z,533.7
2023-01-04T14:13:19.210Z,533.5
2023-01-04T14:14:21.161Z,534
2023-01-04T14:15:24.078Z,534.3
2023-01-04T14:16:26.901Z,534.1
2023-01-04T14:17:29.140Z,533.7
2023-01-04T14:18:31.912Z,533.5
2023-01-04T14:19:34.151Z,533.6
2023-01-04T14:20:36.453Z,533.7
2023-01-04T14:21:38.698Z,533.4
2023-01-04T14:22:41.625Z,533.9
2023-01-04T14:23:43.620Z,533.2
2023-01-04T14:25:51.259Z,533.5
2023-01-04T14:26:53.500Z,533.5
2023-01-04T14:27:55.753Z,533.5